sensor_id;sensor_type;location;lat;lon;timestamp;P1;durP1;ratioP1;P2;durP2;ratioP2
28188;SDS011;15471;51.166;4.470;2023-02-13T00:00:36;0.10;;;0.10;;
28188;SDS011;15471;51.166;4.470;2023-02-13T00:03:02;0.10;;;0.10;;
28188;SDS011;15471;51.166;4.470;2023-02-13T00:05:28;0.20;;;0.20;;
28188;SDS011;15471;51.166;4.470;2023-02-13T00:07:54;0.10;;;0.10;;
28188;SDS011;15471;51.166;4.470;2023-02-13T00:10:20;0.10;;;0.10;;
28188;SDS011;15471;51.166;4.470;2023-02-13T00:12:46;0.10;;;0.10;;
28188;SDS011;15471;51.166;4.470;2023-02-13T00:15:12;0.10;;;0.10;;
28188;SDS011;15471;51.166;4.470;2023-02-13T00:17:38;0.10;;;0.10;;
28188;SDS011;15471;51.166;4.470;2023-02-13T00:20:04;0.20;;;0.20;;
28188;SDS011;15471;51.166;4.470;2023-02-13T00:22:34;0.20;;;0.20;;
28188;SDS011;15471;51.166;4.470;2023-02-13T00:25:01;0.20;;;0.20;;
28188;SDS011;15471;51.166;4.470;2023-02-13T00:27:31;0.20;;;0.20;;
28188;SDS011;15471;51.166;4.470;2023-02-13T00:29:58;0.20;;;0.20;;
28188;SDS011;15471;51.166;4.470;2023-02-13T00:32:23;0.20;;;0.20;;
28188;SDS011;15471;51.166;4.470;2023-02-13T00:34:53;0.10;;;0.10;;
28188;SDS011;15471;51.166;4.470;2023-02-13T00:37:18;0.20;;;0.20;;
28188;SDS011;15471;51.166;4.470;2023-02-13T00:39:44;0.20;;;0.20;;
28188;SDS011;15471;51.166;4.470;2023-02-13T00:42:10;0.20;;;0.20;;
28188;SDS011;15471;51.166;4.470;2023-02-13T00:44:36;0.20;;;0.20;;
28188;SDS011;15471;51.166;4.470;2023-02-13T00:47:05;0.20;;;0.20;;
28188;SDS011;15471;51.166;4.470;2023-02-13T00:49:30;0.20;;;0.20;;
28188;SDS011;15471;51.166;4.470;2023-02-13T00:51:57;0.20;;;0.20;;
28188;SDS011;15471;51.166;4.470;2023-02-13T00:54:23;0.20;;;0.20;;
28188;SDS011;15471;51.166;4.470;2023-02-13T00:56:49;0.20;;;0.20;;
28188;SDS011;15471;51.166;4.470;2023-02-13T00:59:15;0.20;;;0.20;;
28188;SDS011;15471;51.166;4.470;2023-02-13T01:01:41;0.17;;;0.17;;
28188;SDS011;15471;51.166;4.470;2023-02-13T01:04:07;0.20;;;0.20;;
28188;SDS011;15471;51.166;4.470;2023-02-13T01:06:33;0.20;;;0.20;;
28188;SDS011;15471;51.166;4.470;2023-02-13T01:08:59;0.20;;;0.20;;
28188;SDS011;15471;51.166;4.470;2023-02-13T01:11:26;0.20;;;0.20;;
28188;SDS011;15471;51.166;4.470;2023-02-13T01:13:52;0.20;;;0.20;;
28188;SDS011;15471;51.166;4.470;2023-02-13T01:16:19;0.20;;;0.20;;
28188;SDS011;15471;51.166;4.470;2023-02-13T01:18:44;0.20;;;0.20;;
28188;SDS011;15471;51.166;4.470;2023-02-13T01:21:15;0.20;;;0.20;;
28188;SDS011;15471;51.166;4.470;2023-02-13T01:23:43;0.20;;;0.20;;
28188;SDS011;15471;51.166;4.470;2023-02-13T01:26:10;0.20;;;0.20;;
28188;SDS011;15471;51.166;4.470;2023-02-13T01:28:41;0.20;;;0.20;;
28188;SDS011;15471;51.166;4.470;2023-02-13T01:31:07;0.20;;;0.20;;
28188;SDS011;15471;51.166;4.470;2023-02-13T01:33:33;0.20;;;0.20;;
28188;SDS011;15471;51.166;4.470;2023-02-13T01:36:04;0.20;;;0.20;;
28188;SDS011;15471;51.166;4.470;2023-02-13T01:38:31;0.20;;;0.20;;
28188;SDS011;15471;51.166;4.470;2023-02-13T01:40:58;0.20;;;0.20;;
28188;SDS011;15471;51.166;4.470;2023-02-13T01:43:23;0.20;;;0.20;;
28188;SDS011;15471;51.166;4.470;2023-02-13T01:46:06;0.20;;;0.20;;
28188;SDS011;15471;51.166;4.470;2023-02-13T01:48:33;0.20;;;0.20;;
28188;SDS011;15471;51.166;4.470;2023-02-13T01:51:00;0.20;;;0.20;;
28188;SDS011;15471;51.166;4.470;2023-02-13T01:53:37;0.20;;;0.20;;
28188;SDS011;15471;51.166;4.470;2023-02-13T01:56:10;0.20;;;0.20;;
28188;SDS011;15471;51.166;4.470;2023-02-13T01:58:38;0.20;;;0.20;;
28188;SDS011;15471;51.166;4.470;2023-02-13T02:01:06;0.20;;;0.20;;
28188;SDS011;15471;51.166;4.470;2023-02-13T02:03:54;0.20;;;0.20;;
28188;SDS011;15471;51.166;4.470;2023-02-13T02:06:42;0.20;;;0.20;;
28188;SDS011;15471;51.166;4.470;2023-02-13T02:09:20;0.20;;;0.20;;
28188;SDS011;15471;51.166;4.470;2023-02-13T02:14:36;0.20;;;0.20;;
28188;SDS011;15471;51.166;4.470;2023-02-13T02:17:06;0.20;;;0.20;;
28188;SDS011;15471;51.166;4.470;2023-02-13T02:27:55;0.20;;;0.20;;
28188;SDS011;15471;51.166;4.470;2023-02-13T02:30:50;0.20;;;0.20;;
28188;SDS011;15471;51.166;4.470;2023-02-13T02:38:46;0.20;;;0.20;;
28188;SDS011;15471;51.166;4.470;2023-02-13T02:41:26;0.20;;;0.20;;
28188;SDS011;15471;51.166;4.470;2023-02-13T02:47:17;0.30;;;0.30;;
28188;SDS011;15471;51.166;4.470;2023-02-13T02:52:44;0.20;;;0.20;;
28188;SDS011;15471;51.166;4.470;2023-02-13T02:58:36;0.20;;;0.20;;
28188;SDS011;15471;51.166;4.470;2023-02-13T03:01:25;0.20;;;0.20;;
28188;SDS011;15471;51.166;4.470;2023-02-13T03:04:23;0.20;;;0.20;;
28188;SDS011;15471;51.166;4.470;2023-02-13T03:07:21;0.20;;;0.20;;
28188;SDS011;15471;51.166;4.470;2023-02-13T03:09:47;0.20;;;0.20;;
28188;SDS011;15471;51.166;4.470;2023-02-13T03:12:40;0.20;;;0.20;;
28188;SDS011;15471;51.166;4.470;2023-02-13T03:15:42;0.20;;;0.20;;
28188;SDS011;15471;51.166;4.470;2023-02-13T03:18:28;0.20;;;0.20;;
28188;SDS011;15471;51.166;4.470;2023-02-13T03:21:16;0.20;;;0.20;;
28188;SDS011;15471;51.166;4.470;2023-02-13T03:24:06;0.20;;;0.20;;
28188;SDS011;15471;51.166;4.470;2023-02-13T03:29:37;0.20;;;0.20;;
28188;SDS011;15471;51.166;4.470;2023-02-13T03:32:35;0.20;;;0.20;;
28188;SDS011;15471;51.166;4.470;2023-02-13T03:38:12;0.20;;;0.20;;
28188;SDS011;15471;51.166;4.470;2023-02-13T03:46:27;0.20;;;0.20;;
28188;SDS011;15471;51.166;4.470;2023-02-13T03:48:58;0.20;;;0.20;;
28188;SDS011;15471;51.166;4.470;2023-02-13T03:54:21;0.20;;;0.20;;
28188;SDS011;15471;51.166;4.470;2023-02-13T03:57:26;0.20;;;0.20;;
28188;SDS011;15471;51.166;4.470;2023-02-13T04:00:13;0.20;;;0.20;;
28188;SDS011;15471;51.166;4.470;2023-02-13T04:02:50;0.30;;;0.30;;
28188;SDS011;15471;51.166;4.470;2023-02-13T04:05:28;0.20;;;0.20;;
28188;SDS011;15471;51.166;4.470;2023-02-13T04:07:57;0.30;;;0.30;;
28188;SDS011;15471;51.166;4.470;2023-02-13T04:10:23;0.30;;;0.30;;
28188;SDS011;15471;51.166;4.470;2023-02-13T04:12:56;0.20;;;0.20;;
28188;SDS011;15471;51.166;4.470;2023-02-13T04:18:08;0.20;;;0.20;;
28188;SDS011;15471;51.166;4.470;2023-02-13T04:20:34;0.20;;;0.20;;
28188;SDS011;15471;51.166;4.470;2023-02-13T04:23:05;0.20;;;0.20;;
28188;SDS011;15471;51.166;4.470;2023-02-13T04:25:33;0.30;;;0.30;;
28188;SDS011;15471;51.166;4.470;2023-02-13T04:28:01;0.20;;;0.20;;
28188;SDS011;15471;51.166;4.470;2023-02-13T04:30:27;0.22;;;0.22;;
28188;SDS011;15471;51.166;4.470;2023-02-13T04:32:54;0.20;;;0.20;;
28188;SDS011;15471;51.166;4.470;2023-02-13T04:35:20;0.20;;;0.20;;
28188;SDS011;15471;51.166;4.470;2023-02-13T04:37:46;0.20;;;0.20;;
28188;SDS011;15471;51.166;4.470;2023-02-13T04:40:12;0.25;;;0.25;;
28188;SDS011;15471;51.166;4.470;2023-02-13T04:42:38;0.20;;;0.20;;
28188;SDS011;15471;51.166;4.470;2023-02-13T04:45:04;0.30;;;0.30;;
28188;SDS011;15471;51.166;4.470;2023-02-13T04:47:30;0.20;;;0.20;;
28188;SDS011;15471;51.166;4.470;2023-02-13T04:49:56;0.20;;;0.20;;
28188;SDS011;15471;51.166;4.470;2023-02-13T04:52:22;0.28;;;0.28;;
28188;SDS011;15471;51.166;4.470;2023-02-13T04:54:48;0.20;;;0.20;;
28188;SDS011;15471;51.166;4.470;2023-02-13T04:57:14;0.20;;;0.20;;
28188;SDS011;15471;51.166;4.470;2023-02-13T04:59:39;0.20;;;0.20;;
28188;SDS011;15471;51.166;4.470;2023-02-13T05:02:05;0.20;;;0.20;;
28188;SDS011;15471;51.166;4.470;2023-02-13T05:04:32;0.20;;;0.20;;
28188;SDS011;15471;51.166;4.470;2023-02-13T05:06:57;0.20;;;0.20;;
28188;SDS011;15471;51.166;4.470;2023-02-13T05:09:23;0.20;;;0.20;;
28188;SDS011;15471;51.166;4.470;2023-02-13T05:11:50;0.20;;;0.20;;
28188;SDS011;15471;51.166;4.470;2023-02-13T05:14:17;0.20;;;0.20;;
28188;SDS011;15471;51.166;4.470;2023-02-13T05:16:43;0.20;;;0.20;;
28188;SDS011;15471;51.166;4.470;2023-02-13T05:19:09;0.20;;;0.20;;
28188;SDS011;15471;51.166;4.470;2023-02-13T05:21:35;0.20;;;0.20;;
28188;SDS011;15471;51.166;4.470;2023-02-13T05:24:19;0.20;;;0.20;;
28188;SDS011;15471;51.166;4.470;2023-02-13T05:26:45;0.20;;;0.20;;
28188;SDS011;15471;51.166;4.470;2023-02-13T05:29:11;0.20;;;0.20;;
28188;SDS011;15471;51.166;4.470;2023-02-13T05:31:43;0.22;;;0.22;;
28188;SDS011;15471;51.166;4.470;2023-02-13T05:34:09;0.20;;;0.20;;
28188;SDS011;15471;51.166;4.470;2023-02-13T05:36:35;0.20;;;0.20;;
28188;SDS011;15471;51.166;4.470;2023-02-13T05:39:02;0.20;;;0.20;;
28188;SDS011;15471;51.166;4.470;2023-02-13T05:41:28;0.20;;;0.20;;
28188;SDS011;15471;51.166;4.470;2023-02-13T05:43:54;0.20;;;0.20;;
28188;SDS011;15471;51.166;4.470;2023-02-13T05:46:20;0.25;;;0.25;;
28188;SDS011;15471;51.166;4.470;2023-02-13T05:48:45;0.20;;;0.20;;
28188;SDS011;15471;51.166;4.470;2023-02-13T05:51:11;0.20;;;0.20;;
28188;SDS011;15471;51.166;4.470;2023-02-13T05:53:37;0.20;;;0.20;;
28188;SDS011;15471;51.166;4.470;2023-02-13T05:56:04;0.20;;;0.20;;
28188;SDS011;15471;51.166;4.470;2023-02-13T05:58:30;0.20;;;0.20;;
28188;SDS011;15471;51.166;4.470;2023-02-13T06:00:57;0.20;;;0.20;;
28188;SDS011;15471;51.166;4.470;2023-02-13T06:03:24;0.20;;;0.20;;
28188;SDS011;15471;51.166;4.470;2023-02-13T06:05:52;0.20;;;0.20;;
28188;SDS011;15471;51.166;4.470;2023-02-13T06:08:19;0.30;;;0.30;;
28188;SDS011;15471;51.166;4.470;2023-02-13T06:10:47;0.30;;;0.30;;
28188;SDS011;15471;51.166;4.470;2023-02-13T06:13:14;0.20;;;0.20;;
28188;SDS011;15471;51.166;4.470;2023-02-13T06:15:40;0.30;;;0.30;;
28188;SDS011;15471;51.166;4.470;2023-02-13T06:18:06;0.20;;;0.20;;
28188;SDS011;15471;51.166;4.470;2023-02-13T06:20:32;0.30;;;0.30;;
28188;SDS011;15471;51.166;4.470;2023-02-13T06:22:59;0.30;;;0.30;;
28188;SDS011;15471;51.166;4.470;2023-02-13T06:25:25;0.20;;;0.20;;
28188;SDS011;15471;51.166;4.470;2023-02-13T06:27:51;0.30;;;0.30;;
28188;SDS011;15471;51.166;4.470;2023-02-13T06:30:17;0.20;;;0.20;;
28188;SDS011;15471;51.166;4.470;2023-02-13T06:32:44;0.20;;;0.20;;
28188;SDS011;15471;51.166;4.470;2023-02-13T06:35:11;0.20;;;0.20;;
28188;SDS011;15471;51.166;4.470;2023-02-13T06:37:37;0.30;;;0.30;;
28188;SDS011;15471;51.166;4.470;2023-02-13T06:40:04;0.30;;;0.30;;
28188;SDS011;15471;51.166;4.470;2023-02-13T06:42:31;0.20;;;0.20;;
28188;SDS011;15471;51.166;4.470;2023-02-13T06:44:57;0.20;;;0.20;;
28188;SDS011;15471;51.166;4.470;2023-02-13T06:47:23;0.20;;;0.20;;
28188;SDS011;15471;51.166;4.470;2023-02-13T06:49:49;0.30;;;0.30;;
28188;SDS011;15471;51.166;4.470;2023-02-13T06:52:15;0.30;;;0.30;;
28188;SDS011;15471;51.166;4.470;2023-02-13T06:54:41;0.30;;;0.30;;
28188;SDS011;15471;51.166;4.470;2023-02-13T06:57:07;0.30;;;0.30;;
28188;SDS011;15471;51.166;4.470;2023-02-13T06:59:33;0.25;;;0.25;;
28188;SDS011;15471;51.166;4.470;2023-02-13T07:01:59;0.30;;;0.30;;
28188;SDS011;15471;51.166;4.470;2023-02-13T07:04:24;0.30;;;0.30;;
28188;SDS011;15471;51.166;4.470;2023-02-13T07:06:53;0.20;;;0.20;;
28188;SDS011;15471;51.166;4.470;2023-02-13T07:09:23;0.30;;;0.30;;
28188;SDS011;15471;51.166;4.470;2023-02-13T07:11:49;0.30;;;0.30;;
28188;SDS011;15471;51.166;4.470;2023-02-13T07:14:15;0.30;;;0.30;;
28188;SDS011;15471;51.166;4.470;2023-02-13T07:16:41;0.30;;;0.30;;
28188;SDS011;15471;51.166;4.470;2023-02-13T07:19:06;0.30;;;0.30;;
28188;SDS011;15471;51.166;4.470;2023-02-13T07:21:32;0.30;;;0.30;;
28188;SDS011;15471;51.166;4.470;2023-02-13T07:23:58;0.30;;;0.30;;
28188;SDS011;15471;51.166;4.470;2023-02-13T07:26:24;0.30;;;0.30;;
28188;SDS011;15471;51.166;4.470;2023-02-13T07:28:51;0.30;;;0.30;;
28188;SDS011;15471;51.166;4.470;2023-02-13T07:31:17;0.30;;;0.30;;
28188;SDS011;15471;51.166;4.470;2023-02-13T07:33:42;0.30;;;0.30;;
28188;SDS011;15471;51.166;4.470;2023-02-13T07:36:08;0.30;;;0.30;;
28188;SDS011;15471;51.166;4.470;2023-02-13T07:38:34;0.30;;;0.30;;
28188;SDS011;15471;51.166;4.470;2023-02-13T07:41:01;0.30;;;0.30;;
28188;SDS011;15471;51.166;4.470;2023-02-13T07:43:27;0.30;;;0.30;;
28188;SDS011;15471;51.166;4.470;2023-02-13T07:45:57;0.30;;;0.30;;
28188;SDS011;15471;51.166;4.470;2023-02-13T07:48:24;0.30;;;0.30;;
28188;SDS011;15471;51.166;4.470;2023-02-13T07:50:54;0.30;;;0.30;;
28188;SDS011;15471;51.166;4.470;2023-02-13T07:53:24;0.20;;;0.20;;
28188;SDS011;15471;51.166;4.470;2023-02-13T07:55:49;0.30;;;0.30;;
28188;SDS011;15471;51.166;4.470;2023-02-13T07:58:15;0.25;;;0.25;;
28188;SDS011;15471;51.166;4.470;2023-02-13T08:00:41;0.30;;;0.30;;
28188;SDS011;15471;51.166;4.470;2023-02-13T08:03:08;0.30;;;0.30;;
28188;SDS011;15471;51.166;4.470;2023-02-13T08:05:34;0.30;;;0.30;;
28188;SDS011;15471;51.166;4.470;2023-02-13T08:08:00;0.30;;;0.30;;
28188;SDS011;15471;51.166;4.470;2023-02-13T08:10:26;0.20;;;0.20;;
28188;SDS011;15471;51.166;4.470;2023-02-13T08:13:11;0.30;;;0.30;;
28188;SDS011;15471;51.166;4.470;2023-02-13T08:15:39;0.30;;;0.30;;
28188;SDS011;15471;51.166;4.470;2023-02-13T08:18:05;0.30;;;0.30;;
28188;SDS011;15471;51.166;4.470;2023-02-13T08:20:31;0.20;;;0.20;;
28188;SDS011;15471;51.166;4.470;2023-02-13T08:23:07;0.25;;;0.25;;
28188;SDS011;15471;51.166;4.470;2023-02-13T08:25:36;0.22;;;0.22;;
28188;SDS011;15471;51.166;4.470;2023-02-13T08:28:03;0.20;;;0.20;;
28188;SDS011;15471;51.166;4.470;2023-02-13T08:30:29;0.20;;;0.20;;
28188;SDS011;15471;51.166;4.470;2023-02-13T08:32:55;0.20;;;0.20;;
28188;SDS011;15471;51.166;4.470;2023-02-13T08:35:21;0.20;;;0.20;;
28188;SDS011;15471;51.166;4.470;2023-02-13T08:37:51;0.20;;;0.20;;
28188;SDS011;15471;51.166;4.470;2023-02-13T08:40:17;0.20;;;0.20;;
28188;SDS011;15471;51.166;4.470;2023-02-13T08:42:43;0.20;;;0.20;;
28188;SDS011;15471;51.166;4.470;2023-02-13T08:45:09;0.20;;;0.20;;
28188;SDS011;15471;51.166;4.470;2023-02-13T08:47:36;0.20;;;0.20;;
28188;SDS011;15471;51.166;4.470;2023-02-13T08:50:04;0.20;;;0.20;;
28188;SDS011;15471;51.166;4.470;2023-02-13T08:52:30;0.10;;;0.10;;
28188;SDS011;15471;51.166;4.470;2023-02-13T08:54:56;0.10;;;0.10;;
28188;SDS011;15471;51.166;4.470;2023-02-13T08:57:22;0.10;;;0.10;;
28188;SDS011;15471;51.166;4.470;2023-02-13T08:59:48;0.10;;;0.10;;
28188;SDS011;15471;51.166;4.470;2023-02-13T09:02:14;0.10;;;0.10;;
28188;SDS011;15471;51.166;4.470;2023-02-13T09:04:39;0.10;;;0.10;;
28188;SDS011;15471;51.166;4.470;2023-02-13T09:07:05;0.10;;;0.10;;
28188;SDS011;15471;51.166;4.470;2023-02-13T09:09:31;0.10;;;0.10;;
28188;SDS011;15471;51.166;4.470;2023-02-13T09:11:57;0.00;;;0.00;;
28188;SDS011;15471;51.166;4.470;2023-02-13T09:14:26;0.00;;;0.00;;
28188;SDS011;15471;51.166;4.470;2023-02-13T09:16:52;0.10;;;0.10;;
28188;SDS011;15471;51.166;4.470;2023-02-13T09:19:17;0.00;;;0.00;;
28188;SDS011;15471;51.166;4.470;2023-02-13T09:21:43;0.00;;;0.00;;
28188;SDS011;15471;51.166;4.470;2023-02-13T09:24:09;0.00;;;0.00;;
28188;SDS011;15471;51.166;4.470;2023-02-13T09:26:35;0.00;;;0.00;;
28188;SDS011;15471;51.166;4.470;2023-02-13T09:29:01;0.00;;;0.00;;
28188;SDS011;15471;51.166;4.470;2023-02-13T09:31:28;0.00;;;0.00;;
28188;SDS011;15471;51.166;4.470;2023-02-13T09:33:54;0.00;;;0.00;;
28188;SDS011;15471;51.166;4.470;2023-02-13T09:36:21;0.00;;;0.00;;
28188;SDS011;15471;51.166;4.470;2023-02-13T09:38:52;0.00;;;0.00;;
28188;SDS011;15471;51.166;4.470;2023-02-13T09:47:06;0.00;;;0.00;;
28188;SDS011;15471;51.166;4.470;2023-02-13T09:50:04;0.00;;;0.00;;
28188;SDS011;15471;51.166;4.470;2023-02-13T09:52:38;0.00;;;0.00;;
28188;SDS011;15471;51.166;4.470;2023-02-13T09:55:39;0.00;;;0.00;;
28188;SDS011;15471;51.166;4.470;2023-02-13T09:59:16;0.00;;;0.00;;
28188;SDS011;15471;51.166;4.470;2023-02-13T10:01:32;0.00;;;0.00;;
28188;SDS011;15471;51.166;4.470;2023-02-13T10:06:46;0.00;;;0.00;;
28188;SDS011;15471;51.166;4.470;2023-02-13T10:17:44;0.00;;;0.00;;
28188;SDS011;15471;51.166;4.470;2023-02-13T10:20:40;0.00;;;0.00;;
28188;SDS011;15471;51.166;4.470;2023-02-13T10:25:55;0.00;;;0.00;;
28188;SDS011;15471;51.166;4.470;2023-02-13T10:28:47;0.00;;;0.00;;
28188;SDS011;15471;51.166;4.470;2023-02-13T10:31:43;0.00;;;0.00;;
28188;SDS011;15471;51.166;4.470;2023-02-13T10:34:16;0.00;;;0.00;;
28188;SDS011;15471;51.166;4.470;2023-02-13T10:36:45;0.10;;;0.10;;
28188;SDS011;15471;51.166;4.470;2023-02-13T10:39:27;0.03;;;0.03;;
28188;SDS011;15471;51.166;4.470;2023-02-13T10:42:00;0.08;;;0.08;;
28188;SDS011;15471;51.166;4.470;2023-02-13T10:49:43;0.10;;;0.10;;
28188;SDS011;15471;51.166;4.470;2023-02-13T10:52:20;0.00;;;0.00;;
28188;SDS011;15471;51.166;4.470;2023-02-13T11:03:23;0.10;;;0.10;;
28188;SDS011;15471;51.166;4.470;2023-02-13T11:05:51;0.10;;;0.10;;
28188;SDS011;15471;51.166;4.470;2023-02-13T11:08:34;0.10;;;0.10;;
28188;SDS011;15471;51.166;4.470;2023-02-13T11:16:56;0.00;;;0.00;;
28188;SDS011;15471;51.166;4.470;2023-02-13T11:19:31;0.00;;;0.00;;
28188;SDS011;15471;51.166;4.470;2023-02-13T11:22:23;0.10;;;0.10;;
28188;SDS011;15471;51.166;4.470;2023-02-13T11:24:58;0.10;;;0.10;;
28188;SDS011;15471;51.166;4.470;2023-02-13T11:27:36;0.10;;;0.10;;
28188;SDS011;15471;51.166;4.470;2023-02-13T11:30:05;0.00;;;0.00;;
28188;SDS011;15471;51.166;4.470;2023-02-13T11:35:31;0.10;;;0.10;;
28188;SDS011;15471;51.166;4.470;2023-02-13T11:38:12;0.00;;;0.00;;
28188;SDS011;15471;51.166;4.470;2023-02-13T11:40:43;0.10;;;0.10;;
28188;SDS011;15471;51.166;4.470;2023-02-13T11:43:56;0.10;;;0.10;;
28188;SDS011;15471;51.166;4.470;2023-02-13T11:48:55;0.10;;;0.10;;
28188;SDS011;15471;51.166;4.470;2023-02-13T11:54:21;0.00;;;0.00;;
28188;SDS011;15471;51.166;4.470;2023-02-13T11:56:53;0.00;;;0.00;;
28188;SDS011;15471;51.166;4.470;2023-02-13T11:59:25;0.10;;;0.10;;
28188;SDS011;15471;51.166;4.470;2023-02-13T12:04:39;0.00;;;0.00;;
28188;SDS011;15471;51.166;4.470;2023-02-13T12:09:59;0.00;;;0.00;;
28188;SDS011;15471;51.166;4.470;2023-02-13T12:12:45;0.10;;;0.10;;
28188;SDS011;15471;51.166;4.470;2023-02-13T12:15:21;0.00;;;0.00;;
28188;SDS011;15471;51.166;4.470;2023-02-13T12:18:04;0.00;;;0.00;;
28188;SDS011;15471;51.166;4.470;2023-02-13T12:20:33;0.00;;;0.00;;
28188;SDS011;15471;51.166;4.470;2023-02-13T12:36:57;0.00;;;0.00;;
28188;SDS011;15471;51.166;4.470;2023-02-13T12:56:24;0.00;;;0.00;;
28188;SDS011;15471;51.166;4.470;2023-02-13T12:59:24;0.00;;;0.00;;
28188;SDS011;15471;51.166;4.470;2023-02-13T13:02:12;0.00;;;0.00;;
28188;SDS011;15471;51.166;4.470;2023-02-13T13:07:20;0.00;;;0.00;;
28188;SDS011;15471;51.166;4.470;2023-02-13T13:10:37;0.00;;;0.00;;
28188;SDS011;15471;51.166;4.470;2023-02-13T13:13:11;0.00;;;0.00;;
28188;SDS011;15471;51.166;4.470;2023-02-13T13:21:08;0.00;;;0.00;;
28188;SDS011;15471;51.166;4.470;2023-02-13T13:23:51;0.00;;;0.00;;
28188;SDS011;15471;51.166;4.470;2023-02-13T13:26:37;0.00;;;0.00;;
28188;SDS011;15471;51.166;4.470;2023-02-13T13:29:14;0.00;;;0.00;;
28188;SDS011;15471;51.166;4.470;2023-02-13T13:31:58;0.00;;;0.00;;
28188;SDS011;15471;51.166;4.470;2023-02-13T13:34:27;0.00;;;0.00;;
28188;SDS011;15471;51.166;4.470;2023-02-13T13:42:21;0.00;;;0.00;;
28188;SDS011;15471;51.166;4.470;2023-02-13T13:50:21;0.00;;;0.00;;
28188;SDS011;15471;51.166;4.470;2023-02-13T13:53:05;0.00;;;0.00;;
28188;SDS011;15471;51.166;4.470;2023-02-13T13:58:21;0.00;;;0.00;;
28188;SDS011;15471;51.166;4.470;2023-02-13T14:03:58;0.00;;;0.00;;
28188;SDS011;15471;51.166;4.470;2023-02-13T14:09:54;0.00;;;0.00;;
28188;SDS011;15471;51.166;4.470;2023-02-13T14:12:34;0.00;;;0.00;;
28188;SDS011;15471;51.166;4.470;2023-02-13T14:14:58;0.00;;;0.00;;
28188;SDS011;15471;51.166;4.470;2023-02-13T14:20:24;0.00;;;0.00;;
28188;SDS011;15471;51.166;4.470;2023-02-13T14:23:16;0.00;;;0.00;;
28188;SDS011;15471;51.166;4.470;2023-02-13T14:25:50;0.00;;;0.00;;
28188;SDS011;15471;51.166;4.470;2023-02-13T14:31:32;0.00;;;0.00;;
28188;SDS011;15471;51.166;4.470;2023-02-13T14:34:04;0.00;;;0.00;;
28188;SDS011;15471;51.166;4.470;2023-02-13T14:36:39;0.00;;;0.00;;
28188;SDS011;15471;51.166;4.470;2023-02-13T14:39:17;0.00;;;0.00;;
28188;SDS011;15471;51.166;4.470;2023-02-13T14:46:57;0.00;;;0.00;;
28188;SDS011;15471;51.166;4.470;2023-02-13T14:49:36;0.00;;;0.00;;
28188;SDS011;15471;51.166;4.470;2023-02-13T14:52:05;0.00;;;0.00;;
28188;SDS011;15471;51.166;4.470;2023-02-13T14:54:49;0.00;;;0.00;;
28188;SDS011;15471;51.166;4.470;2023-02-13T14:57:26;0.00;;;0.00;;
28188;SDS011;15471;51.166;4.470;2023-02-13T14:59:58;0.00;;;0.00;;
28188;SDS011;15471;51.166;4.470;2023-02-13T15:02:30;0.00;;;0.00;;
28188;SDS011;15471;51.166;4.470;2023-02-13T15:05:00;0.00;;;0.00;;
28188;SDS011;15471;51.166;4.470;2023-02-13T15:07:31;0.00;;;0.00;;
28188;SDS011;15471;51.166;4.470;2023-02-13T15:10:22;0.00;;;0.00;;
28188;SDS011;15471;51.166;4.470;2023-02-13T15:12:58;0.00;;;0.00;;
28188;SDS011;15471;51.166;4.470;2023-02-13T15:15:30;0.00;;;0.00;;
28188;SDS011;15471;51.166;4.470;2023-02-13T15:18:02;0.00;;;0.00;;
28188;SDS011;15471;51.166;4.470;2023-02-13T15:20:34;0.00;;;0.00;;
28188;SDS011;15471;51.166;4.470;2023-02-13T15:23:03;0.00;;;0.00;;
28188;SDS011;15471;51.166;4.470;2023-02-13T15:25:34;0.00;;;0.00;;
28188;SDS011;15471;51.166;4.470;2023-02-13T15:28:03;0.00;;;0.00;;
28188;SDS011;15471;51.166;4.470;2023-02-13T15:30:34;0.00;;;0.00;;
28188;SDS011;15471;51.166;4.470;2023-02-13T15:33:03;0.00;;;0.00;;
28188;SDS011;15471;51.166;4.470;2023-02-13T15:35:35;0.00;;;0.00;;
28188;SDS011;15471;51.166;4.470;2023-02-13T15:40:54;0.00;;;0.00;;
28188;SDS011;15471;51.166;4.470;2023-02-13T15:43:43;0.00;;;0.00;;
28188;SDS011;15471;51.166;4.470;2023-02-13T15:48:51;0.00;;;0.00;;
28188;SDS011;15471;51.166;4.470;2023-02-13T15:51:22;0.00;;;0.00;;
28188;SDS011;15471;51.166;4.470;2023-02-13T15:56:21;0.00;;;0.00;;
28188;SDS011;15471;51.166;4.470;2023-02-13T15:58:47;0.00;;;0.00;;
28188;SDS011;15471;51.166;4.470;2023-02-13T16:01:14;0.00;;;0.00;;
28188;SDS011;15471;51.166;4.470;2023-02-13T16:03:41;0.00;;;0.00;;
28188;SDS011;15471;51.166;4.470;2023-02-13T16:06:13;0.00;;;0.00;;
28188;SDS011;15471;51.166;4.470;2023-02-13T16:08:47;0.00;;;0.00;;
28188;SDS011;15471;51.166;4.470;2023-02-13T16:17:00;0.00;;;0.00;;
28188;SDS011;15471;51.166;4.470;2023-02-13T16:22:25;0.00;;;0.00;;
28188;SDS011;15471;51.166;4.470;2023-02-13T16:30:44;0.10;;;0.10;;
28188;SDS011;15471;51.166;4.470;2023-02-13T16:40:54;0.00;;;0.00;;
28188;SDS011;15471;51.166;4.470;2023-02-13T16:43:53;0.00;;;0.00;;
28188;SDS011;15471;51.166;4.470;2023-02-13T16:46:30;0.00;;;0.00;;
28188;SDS011;15471;51.166;4.470;2023-02-13T16:51:41;0.00;;;0.00;;
28188;SDS011;15471;51.166;4.470;2023-02-13T16:54:45;0.00;;;0.00;;
28188;SDS011;15471;51.166;4.470;2023-02-13T16:57:19;0.00;;;0.00;;
28188;SDS011;15471;51.166;4.470;2023-02-13T17:02:45;0.00;;;0.00;;
28188;SDS011;15471;51.166;4.470;2023-02-13T17:05:20;0.00;;;0.00;;
28188;SDS011;15471;51.166;4.470;2023-02-13T17:07:52;0.10;;;0.10;;
28188;SDS011;15471;51.166;4.470;2023-02-13T17:15:41;0.00;;;0.00;;
28188;SDS011;15471;51.166;4.470;2023-02-13T17:18:08;0.10;;;0.10;;
28188;SDS011;15471;51.166;4.470;2023-02-13T17:20:35;0.10;;;0.10;;
28188;SDS011;15471;51.166;4.470;2023-02-13T17:23:03;0.10;;;0.10;;
28188;SDS011;15471;51.166;4.470;2023-02-13T17:25:31;0.10;;;0.10;;
28188;SDS011;15471;51.166;4.470;2023-02-13T17:28:00;0.10;;;0.10;;
28188;SDS011;15471;51.166;4.470;2023-02-13T17:30:49;0.10;;;0.10;;
28188;SDS011;15471;51.166;4.470;2023-02-13T17:33:18;0.10;;;0.10;;
28188;SDS011;15471;51.166;4.470;2023-02-13T17:35:47;0.10;;;0.10;;
28188;SDS011;15471;51.166;4.470;2023-02-13T17:38:13;0.10;;;0.10;;
28188;SDS011;15471;51.166;4.470;2023-02-13T17:40:39;0.10;;;0.10;;
28188;SDS011;15471;51.166;4.470;2023-02-13T17:43:08;0.10;;;0.10;;
28188;SDS011;15471;51.166;4.470;2023-02-13T17:45:35;0.10;;;0.10;;
28188;SDS011;15471;51.166;4.470;2023-02-13T17:48:01;0.10;;;0.10;;
28188;SDS011;15471;51.166;4.470;2023-02-13T17:50:30;0.10;;;0.10;;
28188;SDS011;15471;51.166;4.470;2023-02-13T17:52:57;0.10;;;0.10;;
28188;SDS011;15471;51.166;4.470;2023-02-13T17:55:27;0.10;;;0.10;;
28188;SDS011;15471;51.166;4.470;2023-02-13T17:57:55;0.10;;;0.10;;
28188;SDS011;15471;51.166;4.470;2023-02-13T18:00:23;0.10;;;0.10;;
28188;SDS011;15471;51.166;4.470;2023-02-13T18:02:51;0.10;;;0.10;;
28188;SDS011;15471;51.166;4.470;2023-02-13T18:05:26;0.10;;;0.10;;
28188;SDS011;15471;51.166;4.470;2023-02-13T18:07:56;0.10;;;0.10;;
28188;SDS011;15471;51.166;4.470;2023-02-13T18:10:30;0.10;;;0.10;;
28188;SDS011;15471;51.166;4.470;2023-02-13T18:12:58;0.10;;;0.10;;
28188;SDS011;15471;51.166;4.470;2023-02-13T18:15:29;0.10;;;0.10;;
28188;SDS011;15471;51.166;4.470;2023-02-13T18:17:58;0.10;;;0.10;;
28188;SDS011;15471;51.166;4.470;2023-02-13T18:20:34;0.10;;;0.10;;
28188;SDS011;15471;51.166;4.470;2023-02-13T18:23:00;0.10;;;0.10;;
28188;SDS011;15471;51.166;4.470;2023-02-13T18:25:26;0.10;;;0.10;;
28188;SDS011;15471;51.166;4.470;2023-02-13T18:27:55;0.10;;;0.10;;
28188;SDS011;15471;51.166;4.470;2023-02-13T18:30:23;0.10;;;0.10;;
28188;SDS011;15471;51.166;4.470;2023-02-13T18:32:51;0.10;;;0.10;;
28188;SDS011;15471;51.166;4.470;2023-02-13T18:35:18;0.10;;;0.10;;
28188;SDS011;15471;51.166;4.470;2023-02-13T18:37:45;0.10;;;0.10;;
28188;SDS011;15471;51.166;4.470;2023-02-13T18:40:11;0.10;;;0.10;;